createdAt,value
2023-11-04T00:01:06.984Z,2.67
2023-11-04T00:03:44.515Z,1.80
2023-11-04T00:06:14.443Z,2.00
2023-11-04T00:08:44.286Z,2.00
2023-11-04T00:11:14.127Z,2.42
2023-11-04T00:13:43.994Z,2.72
2023-11-04T00:16:14.446Z,3.00
2023-11-04T00:18:47.461Z,1.70
2023-11-04T00:23:47.379Z,2.35
2023-11-04T00:26:17.587Z,1.92
2023-11-04T00:28:47.426Z,1.65
2023-11-04T00:31:17.555Z,1.92
2023-11-04T00:33:50.271Z,2.30
2023-11-04T00:36:20.170Z,2.85
2023-11-04T00:38:50.172Z,1.88
2023-11-04T00:41:22.446Z,2.13
2023-11-04T00:43:52.613Z,2.17
2023-11-04T00:46:22.878Z,1.38
2023-11-04T00:48:55.634Z,2.60
2023-11-04T00:51:25.625Z,2.72
2023-11-04T00:53:56.028Z,2.47
2023-11-04T00:56:26.077Z,2.38
2023-11-04T00:58:55.971Z,2.53
2023-11-04T01:01:25.996Z,2.83
2023-11-04T01:03:58.576Z,1.75
2023-11-04T01:06:28.842Z,2.13
2023-11-04T01:08:58.691Z,2.15
2023-11-04T01:11:28.550Z,2.53
2023-11-04T01:13:59.644Z,2.15
2023-11-04T01:16:29.535Z,2.30
2023-11-04T01:19:02.130Z,2.20
2023-11-04T01:21:32.530Z,1.77
2023-11-04T01:24:02.590Z,2.05
2023-11-04T01:26:32.417Z,1.52
2023-11-04T01:29:02.312Z,2.38
2023-11-04T01:31:32.526Z,2.47
2023-11-04T01:34:05.117Z,2.67
2023-11-04T01:36:35.338Z,3.20
2023-11-04T01:39:06.785Z,3.70
2023-11-04T01:41:36.947Z,2.70
2023-11-04T01:44:07.359Z,2.50
2023-11-04T01:46:37.711Z,2.17
2023-11-04T01:49:10.860Z,2.13
2023-11-04T01:51:40.864Z,2.15
2023-11-04T01:54:10.938Z,2.65
2023-11-04T01:56:43.053Z,2.53
2023-11-04T01:59:13.838Z,1.80
2023-11-04T02:01:47.574Z,1.45
2023-11-04T02:04:20.400Z,2.17
2023-11-04T02:09:20.481Z,2.33
2023-11-04T02:11:51.345Z,1.40
2023-11-04T02:14:21.509Z,2.13
2023-11-04T02:16:53.294Z,2.50
2023-11-04T02:19:25.928Z,2.03
2023-11-04T02:21:59.144Z,1.55
2023-11-04T02:24:28.990Z,1.98
2023-11-04T02:26:58.946Z,1.38
2023-11-04T02:29:28.776Z,1.88
2023-11-04T02:31:58.633Z,1.70
2023-11-04T02:34:28.844Z,1.58
2023-11-04T02:37:01.531Z,2.47
2023-11-04T02:39:31.426Z,1.65
2023-11-04T02:42:01.333Z,1.13
2023-11-04T02:44:31.190Z,2.00
2023-11-04T02:47:01.196Z,1.95
2023-11-04T02:49:31.362Z,2.10
2023-11-04T02:52:09.174Z,1.98
2023-11-04T02:54:41.149Z,2.38
2023-11-04T02:57:12.529Z,1.70
2023-11-04T02:59:42.899Z,1.60
2023-11-04T03:02:12.796Z,2.08
2023-11-04T03:04:42.807Z,1.73
2023-11-04T03:07:15.314Z,1.88
2023-11-04T03:09:45.128Z,1.30
2023-11-04T03:12:15.105Z,2.72
2023-11-04T03:14:47.531Z,1.20
2023-11-04T03:17:18.175Z,1.77
2023-11-04T03:19:48.651Z,1.65
2023-11-04T03:22:21.452Z,2.00
2023-11-04T03:24:51.321Z,2.42
2023-11-04T03:27:21.548Z,2.10
2023-11-04T03:29:51.368Z,2.08
2023-11-04T03:32:21.180Z,1.60
2023-11-04T03:34:51.336Z,1.35
2023-11-04T03:37:23.746Z,1.38
2023-11-04T03:39:54.444Z,2.28
2023-11-04T03:42:24.349Z,2.47
2023-11-04T03:44:54.494Z,1.40
2023-11-04T03:47:24.787Z,2.13
2023-11-04T03:49:54.729Z,1.50
2023-11-04T03:52:27.641Z,1.45
2023-11-04T03:54:57.713Z,1.10
2023-11-04T03:57:27.603Z,1.63
2023-11-04T03:59:58.585Z,2.30
2023-11-04T04:02:28.492Z,1.92
2023-11-04T04:04:58.636Z,1.90
2023-11-04T04:07:31.070Z,1.50
2023-11-04T04:10:00.941Z,1.52
2023-11-04T04:12:30.782Z,1.27
2023-11-04T04:15:04.041Z,1.77
2023-11-04T04:17:34.216Z,1.80
2023-11-04T04:20:04.382Z,1.50
2023-11-04T04:22:37.227Z,1.45
2023-11-04T04:25:07.306Z,1.40
2023-11-04T04:27:37.216Z,1.50
2023-11-04T04:30:07.672Z,1.20
2023-11-04T04:32:38.263Z,1.65
2023-11-04T04:35:08.372Z,1.80
2023-11-04T04:37:40.814Z,1.70
2023-11-04T04:40:11.572Z,1.10
2023-11-04T04:42:41.415Z,1.83
2023-11-04T04:45:11.894Z,1.33
2023-11-04T04:47:41.828Z,1.15
2023-11-04T04:50:12.108Z,1.52
2023-11-04T04:52:44.501Z,1.67
2023-11-04T04:55:15.543Z,1.42
2023-11-04T04:57:45.542Z,1.48
2023-11-04T05:00:16.716Z,1.10
2023-11-04T05:02:46.945Z,1.73
2023-11-04T05:05:17.290Z,1.20
2023-11-04T05:07:50.111Z,1.45
2023-11-04T05:10:19.962Z,1.00
2023-11-04T05:12:50.352Z,1.30
2023-11-04T05:15:20.248Z,1.10
2023-11-04T05:17:50.413Z,0.80
2023-11-04T05:20:20.314Z,1.05
2023-11-04T05:22:53.035Z,1.05
2023-11-04T05:25:23.741Z,0.82
2023-11-04T05:27:54.019Z,0.77
2023-11-04T05:30:24.698Z,0.90
2023-11-04T05:32:54.988Z,1.10
2023-11-04T05:35:25.014Z,0.98
2023-11-04T05:37:57.596Z,1.05
2023-11-04T05:40:27.784Z,0.95
2023-11-04T05:42:57.894Z,0.90
2023-11-04T05:45:27.782Z,0.93
2023-11-04T05:47:57.674Z,0.70
2023-11-04T05:50:28.236Z,0.90
2023-11-04T05:53:00.703Z,0.70
2023-11-04T05:55:30.526Z,0.93
2023-11-04T05:58:02.661Z,0.90
2023-11-04T06:00:32.683Z,0.70
2023-11-04T06:03:02.608Z,0.95
2023-11-04T06:05:32.458Z,0.90
2023-11-04T06:08:05.417Z,0.80
2023-11-04T06:13:05.464Z,0.77
2023-11-04T06:15:35.464Z,1.08
2023-11-04T06:18:05.460Z,0.80
2023-11-04T06:20:35.718Z,0.65
2023-11-04T06:23:08.736Z,0.95
2023-11-04T06:25:42.019Z,1.27
2023-11-04T06:28:11.880Z,1.38
2023-11-04T06:30:41.777Z,0.88
2023-11-04T06:33:12.016Z,0.65
2023-11-04T06:35:42.156Z,0.95
2023-11-04T06:38:16.294Z,1.45
2023-11-04T06:40:46.370Z,1.05
2023-11-04T06:43:16.174Z,0.77
2023-11-04T06:45:46.471Z,0.65
2023-11-04T06:48:16.415Z,0.75
2023-11-04T06:50:46.794Z,1.20
2023-11-04T06:53:19.217Z,1.10
2023-11-04T06:55:49.166Z,1.33
2023-11-04T06:58:19.442Z,1.25
2023-11-04T07:00:50.024Z,1.00
2023-11-04T07:03:20.012Z,0.60
2023-11-04T07:05:50.309Z,0.70
2023-11-04T07:08:22.929Z,0.60
2023-11-04T07:10:53.120Z,0.95
2023-11-04T07:13:23.272Z,0.93
2023-11-04T07:15:53.724Z,0.82
2023-11-04T07:18:23.573Z,0.90
2023-11-04T07:20:53.489Z,0.95
2023-11-04T07:23:26.091Z,0.52
2023-11-04T07:25:55.958Z,0.73
2023-11-04T07:28:26.083Z,0.70
2023-11-04T07:30:57.113Z,0.93
2023-11-04T07:33:27.289Z,0.55
2023-11-04T07:35:57.191Z,1.50
2023-11-04T07:38:30.117Z,0.65
2023-11-04T07:41:00.337Z,1.52
2023-11-04T07:43:33.640Z,1.02
2023-11-04T07:46:03.594Z,1.30
2023-11-04T07:48:33.611Z,0.98
2023-11-04T07:51:03.641Z,1.13
2023-11-04T07:53:36.102Z,1.40
2023-11-04T07:56:06.676Z,0.85
2023-11-04T07:58:39.544Z,0.85
2023-11-04T08:01:11.081Z,0.52
2023-11-04T08:03:41.060Z,1.05
2023-11-04T08:06:11.555Z,1.02
2023-11-04T08:08:44.357Z,0.73
2023-11-04T08:11:16.694Z,1.40
2023-11-04T08:13:47.001Z,0.82
2023-11-04T08:16:16.875Z,0.73
2023-11-04T08:18:47.424Z,0.85
2023-11-04T08:21:17.929Z,2.05
2023-11-04T08:23:50.598Z,1.33
2023-11-04T08:26:20.476Z,0.70
2023-11-04T08:28:52.624Z,0.85
2023-11-04T08:31:22.798Z,0.70
2023-11-04T08:37:04.010Z,1.10
2023-11-04T08:39:36.878Z,0.90
2023-11-04T08:42:08.406Z,0.57
2023-11-04T08:44:38.628Z,1.20
2023-11-04T08:47:08.509Z,0.88
2023-11-04T08:49:38.934Z,1.25
2023-11-04T08:52:09.824Z,1.15
2023-11-04T08:54:42.766Z,0.90
2023-11-04T08:57:12.955Z,1.00
2023-11-04T08:59:42.848Z,0.90
2023-11-04T09:02:12.915Z,0.77
2023-11-04T09:04:43.174Z,0.63
2023-11-04T09:07:13.290Z,0.85
2023-11-04T09:09:46.285Z,0.80
2023-11-04T09:12:20.604Z,1.13
2023-11-04T09:14:52.214Z,0.50
2023-11-04T09:17:22.721Z,0.82
2023-11-04T09:19:53.070Z,1.00
2023-11-04T09:22:23.008Z,0.90
2023-11-04T09:24:56.657Z,0.43
2023-11-04T09:27:26.548Z,0.73
2023-11-04T09:29:57.264Z,0.85
2023-11-04T09:32:27.258Z,0.40
2023-11-04T09:34:57.691Z,0.40
2023-11-04T09:37:27.783Z,0.40
2023-11-04T09:40:00.519Z,0.50
2023-11-04T09:42:43.438Z,0.77
2023-11-04T09:45:14.738Z,0.35
2023-11-04T09:47:44.652Z,0.73
2023-11-04T09:50:14.702Z,0.60
2023-11-04T09:52:46.049Z,0.80
2023-11-04T09:55:19.537Z,0.68
2023-11-04T09:57:50.354Z,0.60
2023-11-04T10:00:22.953Z,0.63
2023-11-04T10:02:52.800Z,0.65
2023-11-04T10:05:22.887Z,0.43
2023-11-04T10:07:52.754Z,0.60
2023-11-04T10:10:29.318Z,0.50
2023-11-04T10:12:59.939Z,1.02
2023-11-04T10:15:29.833Z,0.47
2023-11-04T10:17:59.740Z,0.70
2023-11-04T10:20:29.816Z,0.55
2023-11-04T10:23:00.188Z,0.40
2023-11-04T10:25:32.883Z,0.55
2023-11-04T10:28:02.896Z,0.30
2023-11-04T10:30:33.039Z,0.50
2023-11-04T10:33:05.952Z,0.55
2023-11-04T10:35:35.991Z,0.85
2023-11-04T10:38:07.988Z,0.60
2023-11-04T10:40:42.462Z,0.43
2023-11-04T10:43:15.902Z,0.50
2023-11-04T10:45:49.170Z,0.70
2023-11-04T10:48:20.729Z,0.60
2023-11-04T10:50:54.319Z,0.35
2023-11-04T10:53:34.741Z,0.40
2023-11-04T10:56:12.009Z,0.65
2023-11-04T10:58:44.657Z,0.98
2023-11-04T11:01:15.619Z,0.50
2023-11-04T11:03:46.253Z,0.55
2023-11-04T11:06:17.063Z,0.50
2023-11-04T11:08:51.529Z,0.50
2023-11-04T11:11:26.337Z,0.40
2023-11-04T11:13:57.853Z,0.22
2023-11-04T11:16:28.532Z,0.60
2023-11-04T11:19:09.412Z,0.47
2023-11-04T11:21:51.243Z,0.32
2023-11-04T11:24:22.325Z,0.90
2023-11-04T11:26:55.621Z,0.82
2023-11-04T11:29:26.677Z,0.38
2023-11-04T11:32:06.523Z,0.28
2023-11-04T11:34:36.570Z,0.98
2023-11-04T11:37:07.300Z,0.28
2023-11-04T11:39:37.489Z,0.68
2023-11-04T11:42:10.100Z,0.35
2023-11-04T11:44:39.906Z,0.38
2023-11-04T11:47:09.977Z,0.30
2023-11-04T11:49:40.270Z,0.40
2023-11-04T11:52:10.187Z,0.70
2023-11-04T11:54:40.915Z,0.30
2023-11-04T11:57:13.696Z,0.50
2023-11-04T11:59:43.663Z,0.20
2023-11-04T12:02:13.652Z,0.60
2023-11-04T12:04:44.100Z,0.35
2023-11-04T12:07:14.656Z,0.50
2023-11-04T12:09:44.616Z,0.20
2023-11-04T12:12:17.506Z,0.50
2023-11-04T12:14:47.996Z,0.40
2023-11-04T12:17:18.104Z,0.43
2023-11-04T12:19:48.375Z,0.40
2023-11-04T12:22:18.273Z,0.45
2023-11-04T12:24:48.242Z,0.30
2023-11-04T12:27:20.710Z,0.40
2023-11-04T12:29:55.350Z,0.28
2023-11-04T12:32:25.464Z,0.15
2023-11-04T12:34:57.496Z,0.60
2023-11-04T12:37:29.573Z,0.28
2023-11-04T12:39:59.498Z,0.55
2023-11-04T12:42:32.570Z,0.30
2023-11-04T12:45:02.941Z,0.30
2023-11-04T12:47:33.414Z,0.43
2023-11-04T12:50:04.630Z,1.30
2023-11-04T12:52:34.861Z,0.40
2023-11-04T12:55:05.333Z,0.10
2023-11-04T12:57:37.847Z,0.40
2023-11-04T13:00:08.657Z,0.40
2023-11-04T13:02:38.806Z,0.60
2023-11-04T13:05:09.236Z,0.30
2023-11-04T13:07:39.956Z,0.80
2023-11-04T13:10:10.321Z,0.65
2023-11-04T13:12:42.863Z,0.40
2023-11-04T13:15:13.991Z,0.45
2023-11-04T13:17:44.214Z,0.55
2023-11-04T13:20:14.888Z,0.28
2023-11-04T13:22:45.193Z,0.30
2023-11-04T13:25:15.133Z,0.22
2023-11-04T13:27:48.386Z,0.70
2023-11-04T13:30:19.461Z,0.68
2023-11-04T13:32:49.570Z,0.40
2023-11-04T13:35:20.254Z,0.30
2023-11-04T13:37:50.598Z,0.70
2023-11-04T13:40:20.865Z,0.57
2023-11-04T13:42:53.433Z,0.32
2023-11-04T13:45:23.505Z,1.05
2023-11-04T13:47:53.617Z,0.93
2023-11-04T13:50:24.091Z,0.85
2023-11-04T13:52:54.214Z,0.93
2023-11-04T13:55:24.336Z,0.60
2023-11-04T13:57:57.344Z,0.40
2023-11-04T14:00:27.340Z,0.57
2023-11-04T14:02:57.843Z,0.90
2023-11-04T14:05:29.582Z,0.60
2023-11-04T14:07:59.790Z,0.45
2023-11-04T14:10:29.777Z,0.50
2023-11-04T14:13:02.544Z,0.88
2023-11-04T14:15:32.973Z,0.73
2023-11-04T14:18:05.051Z,0.85
2023-11-04T14:20:35.796Z,0.40
2023-11-04T14:23:05.912Z,0.70
2023-11-04T14:25:36.007Z,0.60
2023-11-04T14:28:08.505Z,0.82
2023-11-04T14:30:38.886Z,0.70
2023-11-04T14:33:08.881Z,1.15
2023-11-04T14:35:38.938Z,0.60
2023-11-04T14:38:10.952Z,0.65
2023-11-04T14:40:41.120Z,0.80
2023-11-04T14:43:13.703Z,0.93
2023-11-04T14:45:43.912Z,0.93
2023-11-04T14:48:13.877Z,0.82
2023-11-04T14:50:44.076Z,1.05
2023-11-04T14:53:13.919Z,1.27
2023-11-04T14:55:43.742Z,1.48
2023-11-04T14:58:16.595Z,1.45
2023-11-04T15:00:47.923Z,1.15
2023-11-04T15:03:18.356Z,0.60
2023-11-04T15:05:48.281Z,0.85
2023-11-04T15:08:19.575Z,1.15
2023-11-04T15:10:49.426Z,0.57
2023-11-04T15:13:22.652Z,0.73
2023-11-04T15:15:52.708Z,0.50
2023-11-04T15:18:22.620Z,1.02
2023-11-04T15:20:52.521Z,0.63
2023-11-04T15:23:22.664Z,0.63
2023-11-04T15:25:52.503Z,0.85
2023-11-04T15:28:28.057Z,0.80
2023-11-04T15:31:01.500Z,0.50
2023-11-04T15:33:34.577Z,0.60
2023-11-04T15:50:55.808Z,0.85
2023-11-04T15:53:26.491Z,1.00
2023-11-04T15:55:59.466Z,1.00
2023-11-04T16:01:05.303Z,1.00
2023-11-04T16:03:35.300Z,1.77
2023-11-04T16:06:08.712Z,1.13
2023-11-04T16:08:38.530Z,0.77
2023-11-04T16:11:09.218Z,1.23
2023-11-04T16:13:39.029Z,0.95
2023-11-04T16:16:09.684Z,0.93
2023-11-04T16:18:39.627Z,1.05
2023-11-04T16:21:12.448Z,1.33
2023-11-04T16:23:42.658Z,1.50
2023-11-04T16:26:17.834Z,1.30
2023-11-04T16:28:47.898Z,1.10
2023-11-04T16:31:24.406Z,1.25
2023-11-04T16:33:54.842Z,1.10
2023-11-04T16:36:27.375Z,1.00
2023-11-04T16:38:58.038Z,0.90
2023-11-04T16:41:27.882Z,0.70
2023-11-04T16:43:57.722Z,1.08
2023-11-04T16:46:30.704Z,1.00
2023-11-04T16:49:00.997Z,1.63
2023-11-04T16:51:33.526Z,0.90
2023-11-04T16:54:03.352Z,1.00
2023-11-04T16:56:33.504Z,0.98
2023-11-04T16:59:03.345Z,0.80
2023-11-04T17:01:33.183Z,1.27
2023-11-04T17:04:03.242Z,0.60
2023-11-04T17:06:36.380Z,0.55
2023-11-04T17:11:37.091Z,1.00
2023-11-04T17:14:06.921Z,1.30
2023-11-04T17:16:37.154Z,0.88
2023-11-04T17:19:07.175Z,0.70
2023-11-04T17:21:39.919Z,0.82
2023-11-04T17:24:10.191Z,0.80
2023-11-04T17:26:40.046Z,1.15
2023-11-04T17:29:10.562Z,1.38
2023-11-04T17:31:40.441Z,1.20
2023-11-04T17:34:10.632Z,1.00
2023-11-04T17:36:43.084Z,0.95
2023-11-04T17:39:13.458Z,1.33
2023-11-04T17:41:43.576Z,1.08
2023-11-04T17:44:13.636Z,0.95
2023-11-04T17:46:43.795Z,1.50
2023-11-04T17:49:13.981Z,0.93
2023-11-04T17:51:46.512Z,1.02
2023-11-04T17:54:17.339Z,1.33
2023-11-04T17:56:47.981Z,2.35
2023-11-04T17:59:17.844Z,1.00
2023-11-04T18:01:47.630Z,1.25
2023-11-04T18:04:17.786Z,0.80
2023-11-04T18:06:52.018Z,0.77
2023-11-04T18:09:21.909Z,1.25
2023-11-04T18:11:51.723Z,0.90
2023-11-04T18:14:22.084Z,0.80
2023-11-04T18:16:51.919Z,0.82
2023-11-04T18:19:22.318Z,1.23
2023-11-04T18:21:54.969Z,0.75
2023-11-04T18:24:24.889Z,1.00
2023-11-04T18:26:54.695Z,0.80
2023-11-04T18:29:24.544Z,0.93
2023-11-04T18:31:54.383Z,0.80
2023-11-04T18:34:24.935Z,0.73
2023-11-04T18:36:57.604Z,0.85
2023-11-04T18:39:29.778Z,0.52
2023-11-04T18:41:59.619Z,0.80
2023-11-04T18:44:29.605Z,0.50
2023-11-04T18:46:59.439Z,1.00
2023-11-04T18:49:30.139Z,0.43
2023-11-04T18:52:03.125Z,0.45
2023-11-04T18:54:32.952Z,0.70
2023-11-04T18:57:03.190Z,0.40
2023-11-04T18:59:33.069Z,0.45
2023-11-04T19:02:03.728Z,0.82
2023-11-04T19:04:33.843Z,0.70
2023-11-04T19:07:07.054Z,0.52
2023-11-04T19:09:37.056Z,0.50
2023-11-04T19:12:07.095Z,0.73
2023-11-04T19:14:36.907Z,0.40
2023-11-04T19:17:06.965Z,0.35
2023-11-04T19:19:36.947Z,0.57
2023-11-04T19:22:09.996Z,0.60
2023-11-04T19:27:09.841Z,0.57
2023-11-04T19:29:39.672Z,0.63
2023-11-04T19:32:15.471Z,0.40
2023-11-04T19:34:45.359Z,0.68
2023-11-04T19:37:17.920Z,0.40
2023-11-04T19:39:47.816Z,0.60
2023-11-04T19:42:17.716Z,0.30
2023-11-04T19:44:47.951Z,0.47
2023-11-04T19:47:17.779Z,0.55
2023-11-04T19:49:47.678Z,0.50
2023-11-04T19:52:21.658Z,0.70
2023-11-04T19:54:51.809Z,0.70
2023-11-04T19:57:21.910Z,0.40
2023-11-04T19:59:51.909Z,0.40
2023-11-04T20:02:22.069Z,0.40
2023-11-04T20:04:53.512Z,0.52
2023-11-04T20:07:26.366Z,0.47
2023-11-04T20:09:56.245Z,0.70
2023-11-04T20:12:26.341Z,0.40
2023-11-04T20:14:56.175Z,0.70
2023-11-04T20:17:26.535Z,0.60
2023-11-04T20:19:57.838Z,0.50
2023-11-04T20:22:30.933Z,0.57
2023-11-04T20:27:28.933Z,0.47
2023-11-04T20:29:59.212Z,0.90
2023-11-04T20:32:29.086Z,0.65
2023-11-04T20:34:58.971Z,0.68
2023-11-04T20:37:31.365Z,0.63
2023-11-04T20:40:01.642Z,0.38
2023-11-04T20:42:33.229Z,0.80
2023-11-04T20:45:04.988Z,0.60
2023-11-04T20:47:34.849Z,0.80
2023-11-04T20:50:07.475Z,0.70
2023-11-04T20:52:42.454Z,0.88
2023-11-04T20:55:12.549Z,0.55
2023-11-04T20:57:42.541Z,0.38
2023-11-04T21:00:14.641Z,0.60
2023-11-04T21:02:46.012Z,0.67
2023-11-04T21:05:18.200Z,0.40
2023-11-04T21:07:50.706Z,0.60
2023-11-04T21:10:22.557Z,0.85
2023-11-04T21:12:52.522Z,0.57
2023-11-04T21:15:22.465Z,0.60
2023-11-04T21:17:53.054Z,0.40
2023-11-04T21:20:23.237Z,0.63
2023-11-04T21:22:55.698Z,0.30
2023-11-04T21:25:25.570Z,0.43
2023-11-04T21:27:55.880Z,0.80
2023-11-04T21:30:25.809Z,0.57
2023-11-04T21:32:55.765Z,0.60
2023-11-04T21:35:25.603Z,0.60
2023-11-04T21:37:58.127Z,0.50
2023-11-04T21:40:28.571Z,0.60
2023-11-04T21:42:58.742Z,0.32
2023-11-04T21:45:28.538Z,0.60
2023-11-04T21:47:59.458Z,0.30
2023-11-04T21:50:29.644Z,0.40
2023-11-04T21:53:02.207Z,0.70
2023-11-04T21:55:33.796Z,0.40
2023-11-04T21:58:03.619Z,0.68
2023-11-04T22:00:33.605Z,0.50
2023-11-04T22:03:03.534Z,0.40
2023-11-04T22:05:33.727Z,0.50
2023-11-04T22:08:07.382Z,0.50
2023-11-04T22:10:40.607Z,0.30
2023-11-04T22:13:11.031Z,0.88
2023-11-04T22:15:41.618Z,0.30
2023-11-04T22:18:11.819Z,0.60
2023-11-04T22:20:41.722Z,0.40
2023-11-04T22:23:14.122Z,0.50
2023-11-04T22:25:43.976Z,0.22
2023-11-04T22:28:13.839Z,0.65
2023-11-04T22:30:43.938Z,0.43
2023-11-04T22:33:14.056Z,0.57
2023-11-04T22:35:43.920Z,0.70
2023-11-04T22:38:16.579Z,0.47
2023-11-04T22:40:46.530Z,0.40
2023-11-04T22:43:16.411Z,0.50
2023-11-04T22:45:46.239Z,0.43
2023-11-04T22:48:16.237Z,0.50
2023-11-04T22:50:46.624Z,0.52
2023-11-04T22:53:21.306Z,0.43
2023-11-04T22:55:51.102Z,0.47
2023-11-04T22:58:21.002Z,0.50
2023-11-04T23:00:53.266Z,0.43
2023-11-04T23:03:23.185Z,0.40
2023-11-04T23:05:53.475Z,0.45
2023-11-04T23:08:26.061Z,0.47
2023-11-04T23:10:55.887Z,0.32
2023-11-04T23:13:26.020Z,0.50
2023-11-04T23:15:56.211Z,0.50
2023-11-04T23:18:26.209Z,0.40
2023-11-04T23:20:56.088Z,0.85
2023-11-04T23:23:31.604Z,0.45
2023-11-04T23:26:01.539Z,0.65
2023-11-04T23:28:31.714Z,0.52
2023-11-04T23:31:01.621Z,0.28
2023-11-04T23:33:32.777Z,0.40
2023-11-04T23:36:02.613Z,0.32
2023-11-04T23:38:35.038Z,0.40
2023-11-04T23:41:04.841Z,0.50
2023-11-04T23:43:34.686Z,0.60
2023-11-04T23:46:04.901Z,0.45
2023-11-04T23:48:35.180Z,0.50
2023-11-04T23:51:05.065Z,0.55
2023-11-04T23:53:37.571Z,0.40
2023-11-04T23:56:09.425Z,0.50
2023-11-04T23:58:39.413Z,0.38
